createdAt,value
2023-01-23T00:01:48.187Z,24.17
2023-01-23T00:04:17.433Z,22.65
2023-01-23T00:06:47.172Z,21.38
2023-01-23T00:09:16.249Z,21.20
2023-01-23T00:11:44.876Z,20.15
2023-01-23T00:14:13.571Z,22.08
2023-01-23T00:16:43.769Z,25.90
2023-01-23T00:19:12.679Z,26.48
2023-01-23T00:21:41.140Z,24.77
2023-01-23T00:24:13.078Z,24.48
2023-01-23T00:26:41.829Z,20.02
2023-01-23T00:29:11.648Z,23.40
2023-01-23T00:31:40.370Z,22.42
2023-01-23T00:34:15.730Z,18.27
2023-01-23T00:36:46.131Z,25.85
2023-01-23T00:39:18.545Z,20.05
2023-01-23T00:41:47.533Z,22.88
2023-01-23T00:44:17.113Z,24.90
2023-01-23T00:46:48.260Z,26.13
2023-01-23T00:49:18.854Z,24.52
2023-01-23T00:51:47.666Z,22.30
2023-01-23T00:54:16.086Z,21.23
2023-01-23T00:56:45.099Z,20.00
2023-01-23T00:59:14.604Z,24.13
2023-01-23T01:01:43.255Z,23.83
2023-01-23T01:04:12.090Z,23.17
2023-01-23T01:06:42.133Z,19.85
2023-01-23T01:09:10.644Z,23.10
2023-01-23T01:11:39.804Z,20.65
2023-01-23T01:14:09.786Z,20.35
2023-01-23T01:16:38.549Z,20.33
2023-01-23T01:19:06.984Z,22.67
2023-01-23T01:21:36.022Z,24.73
2023-01-23T01:24:08.438Z,16.17
2023-01-23T01:26:37.519Z,19.35
2023-01-23T01:29:05.984Z,23.13
2023-01-23T01:31:34.620Z,18.42
2023-01-23T01:34:04.175Z,23.13
2023-01-23T01:36:32.863Z,37.22
2023-01-23T01:39:01.276Z,27.17
2023-01-23T01:41:31.221Z,21.17
2023-01-23T01:44:00.293Z,20.75
2023-01-23T01:46:30.272Z,20.92
2023-01-23T01:49:07.387Z,23.67
2023-01-23T01:51:40.659Z,22.92
2023-01-23T01:54:18.103Z,30.02
2023-01-23T01:56:51.628Z,32.55
2023-01-23T01:59:22.963Z,48.85
2023-01-23T02:01:55.593Z,31.40
2023-01-23T02:04:24.218Z,23.98
2023-01-23T02:06:55.248Z,30.15
2023-01-23T02:09:27.471Z,33.47
2023-01-23T02:11:58.187Z,33.35
2023-01-23T02:14:26.589Z,26.95
2023-01-23T02:17:00.234Z,27.65
2023-01-23T02:19:52.114Z,30.73
2023-01-23T02:22:46.916Z,34.47
2023-01-23T02:25:22.253Z,32.22
2023-01-23T02:27:52.418Z,36.78
2023-01-23T02:30:21.552Z,27.20
2023-01-23T02:32:51.380Z,32.25
2023-01-23T02:35:24.514Z,31.88
2023-01-23T02:37:57.021Z,36.33
2023-01-23T02:43:02.996Z,36.35
2023-01-23T02:45:32.115Z,28.35
2023-01-23T02:48:01.724Z,30.83
2023-01-23T02:50:31.059Z,19.98
2023-01-23T02:52:59.971Z,21.13
2023-01-23T02:55:31.804Z,20.67
2023-01-23T02:58:21.171Z,25.17
2023-01-23T03:00:51.616Z,25.35
2023-01-23T03:03:32.210Z,24.33
2023-01-23T03:06:04.082Z,22.60
2023-01-23T03:08:36.840Z,24.25
2023-01-23T03:11:06.040Z,25.17
2023-01-23T03:13:35.025Z,20.63
2023-01-23T03:16:20.471Z,17.38
2023-01-23T03:18:54.718Z,21.60
2023-01-23T03:21:24.490Z,22.95
2023-01-23T03:24:01.105Z,22.48
2023-01-23T03:26:30.066Z,21.20
2023-01-23T03:29:18.325Z,20.60
2023-01-23T03:31:48.882Z,24.63
2023-01-23T03:34:19.276Z,18.48
2023-01-23T03:36:48.514Z,20.33
2023-01-23T03:39:34.885Z,19.10
2023-01-23T03:42:03.497Z,18.17
2023-01-23T03:44:33.333Z,21.90
2023-01-23T03:47:06.526Z,20.65
2023-01-23T03:49:37.222Z,19.77
2023-01-23T03:52:07.001Z,20.02
2023-01-23T03:54:36.253Z,17.00
2023-01-23T03:57:08.121Z,22.02
2023-01-23T04:00:06.588Z,21.02
2023-01-23T04:02:52.523Z,19.98
2023-01-23T04:05:22.295Z,18.02
2023-01-23T04:07:51.181Z,16.95
2023-01-23T04:10:20.405Z,17.17
2023-01-23T04:12:54.398Z,15.00
2023-01-23T04:15:23.009Z,20.60
2023-01-23T04:17:55.016Z,17.58
2023-01-23T04:20:27.543Z,17.17
2023-01-23T04:22:58.106Z,17.85
2023-01-23T04:25:30.285Z,16.38
2023-01-23T04:27:59.245Z,17.92
2023-01-23T04:30:27.967Z,15.90
2023-01-23T04:33:00.208Z,16.33
2023-01-23T04:35:28.806Z,16.08
2023-01-23T04:37:58.427Z,19.50
2023-01-23T04:40:27.519Z,19.42
2023-01-23T04:43:03.085Z,17.83
2023-01-23T04:45:38.846Z,17.83
2023-01-23T04:48:23.039Z,14.98
2023-01-23T04:50:53.634Z,14.45
2023-01-23T04:53:22.511Z,17.70
2023-01-23T04:55:58.619Z,18.60
2023-01-23T04:58:27.467Z,17.70
2023-01-23T05:01:03.732Z,16.67
2023-01-23T05:03:37.723Z,17.17
2023-01-23T05:06:11.416Z,17.25
2023-01-23T05:08:41.255Z,16.83
2023-01-23T05:11:24.826Z,17.08
2023-01-23T05:13:54.165Z,15.75
2023-01-23T05:16:28.063Z,16.65
2023-01-23T05:19:19.504Z,18.00
2023-01-23T05:21:48.768Z,17.65
2023-01-23T05:24:19.954Z,17.65
2023-01-23T05:26:49.472Z,17.13
2023-01-23T05:29:34.700Z,15.07
2023-01-23T05:32:09.568Z,18.60
2023-01-23T05:34:45.144Z,15.32
2023-01-23T05:37:27.458Z,18.00
2023-01-23T05:40:03.483Z,16.83
2023-01-23T05:42:52.638Z,25.67
2023-01-23T05:45:43.707Z,21.13
2023-01-23T05:48:21.120Z,21.23
2023-01-23T05:50:51.205Z,21.00
2023-01-23T05:53:19.790Z,26.00
2023-01-23T05:55:48.590Z,25.45
2023-01-23T05:58:17.543Z,22.30
2023-01-23T06:01:07.082Z,25.05
2023-01-23T06:03:54.526Z,20.67
2023-01-23T06:06:41.452Z,23.60
2023-01-23T06:09:11.520Z,16.70
2023-01-23T06:11:41.000Z,18.67
2023-01-23T06:14:11.137Z,20.20
2023-01-23T06:16:40.065Z,16.40
2023-01-23T06:19:10.211Z,16.63
2023-01-23T06:21:38.765Z,17.23
2023-01-23T06:24:10.016Z,18.35
2023-01-23T06:26:38.617Z,15.38
2023-01-23T06:29:08.654Z,17.42
2023-01-23T06:31:37.296Z,13.10
2023-01-23T06:34:06.055Z,14.65
2023-01-23T06:36:41.741Z,15.52
2023-01-23T06:39:15.336Z,15.40
2023-01-23T06:41:44.738Z,15.40
2023-01-23T06:44:19.025Z,16.05
2023-01-23T06:46:47.775Z,15.18
2023-01-23T06:49:16.442Z,15.00
2023-01-23T06:51:44.964Z,13.98
2023-01-23T06:54:15.791Z,14.52
2023-01-23T06:56:45.672Z,17.75
2023-01-23T06:59:15.577Z,16.00
2023-01-23T07:01:44.582Z,16.52
2023-01-23T07:04:21.092Z,15.77
2023-01-23T07:06:52.427Z,16.90
2023-01-23T07:09:24.286Z,15.93
2023-01-23T07:12:13.201Z,17.08
2023-01-23T07:14:41.811Z,16.42
2023-01-23T07:17:13.575Z,17.25
2023-01-23T07:19:42.435Z,16.00
2023-01-23T07:22:17.856Z,15.88
2023-01-23T07:27:17.301Z,17.75
2023-01-23T07:29:45.867Z,15.73
2023-01-23T07:32:14.576Z,17.25
2023-01-23T07:34:43.302Z,16.88
2023-01-23T07:37:11.827Z,19.38
2023-01-23T07:39:40.660Z,15.00
2023-01-23T07:42:10.857Z,17.05
2023-01-23T07:44:43.368Z,16.20
2023-01-23T07:47:11.994Z,19.52
2023-01-23T07:49:40.773Z,16.80
2023-01-23T07:52:09.698Z,20.02
2023-01-23T07:54:38.417Z,17.58
2023-01-23T07:57:06.980Z,15.50
2023-01-23T07:59:36.967Z,15.05
2023-01-23T08:02:05.624Z,16.23
2023-01-23T08:04:34.181Z,14.32
2023-01-23T08:07:02.963Z,15.20
2023-01-23T08:09:31.721Z,16.10
2023-01-23T08:12:00.413Z,17.13
2023-01-23T08:14:28.927Z,17.48
2023-01-23T08:16:59.182Z,16.23
2023-01-23T08:19:28.452Z,15.10
2023-01-23T08:21:57.055Z,18.05
2023-01-23T08:24:25.592Z,17.33
2023-01-23T08:26:54.083Z,19.88
2023-01-23T08:29:22.695Z,20.02
2023-01-23T08:31:55.044Z,18.45
2023-01-23T08:34:25.466Z,15.65
2023-01-23T08:36:54.507Z,15.90
2023-01-23T08:39:24.695Z,17.60
2023-01-23T08:41:53.594Z,17.88
2023-01-23T08:44:22.074Z,16.40
2023-01-23T08:46:50.771Z,18.33
2023-01-23T08:49:21.302Z,18.83
2023-01-23T08:51:51.036Z,17.73
2023-01-23T08:54:19.640Z,17.42
2023-01-23T08:56:48.284Z,19.05
2023-01-23T08:59:16.514Z,21.45
2023-01-23T09:01:46.413Z,20.60
2023-01-23T09:04:15.448Z,17.50
2023-01-23T09:06:44.549Z,16.20
2023-01-23T09:09:14.734Z,21.88
2023-01-23T09:11:43.150Z,20.77
2023-01-23T09:14:11.727Z,21.50
2023-01-23T09:16:41.603Z,20.17
2023-01-23T09:19:10.543Z,21.45
2023-01-23T09:21:39.134Z,21.27
2023-01-23T09:24:08.779Z,18.27
2023-01-23T09:26:39.011Z,22.45
2023-01-23T09:29:07.587Z,17.45
2023-01-23T09:31:36.812Z,18.73
2023-01-23T09:34:05.307Z,16.95
2023-01-23T09:36:42.807Z,20.42
2023-01-23T09:39:12.833Z,19.10
2023-01-23T09:41:46.257Z,18.38
2023-01-23T09:44:23.237Z,19.88
2023-01-23T09:46:54.574Z,19.05
2023-01-23T09:49:27.309Z,21.15
2023-01-23T09:52:01.607Z,21.60
2023-01-23T09:54:43.350Z,25.10
2023-01-23T09:57:17.824Z,22.08
2023-01-23T09:59:59.899Z,18.65
2023-01-23T10:02:30.405Z,21.58
2023-01-23T10:05:02.719Z,20.15
2023-01-23T10:07:54.254Z,20.52
2023-01-23T10:10:48.821Z,21.38
2023-01-23T10:13:24.084Z,19.02
2023-01-23T10:16:18.243Z,21.77
2023-01-23T10:19:04.982Z,19.30
2023-01-23T10:21:39.831Z,17.20
2023-01-23T10:24:28.572Z,22.67
2023-01-23T10:27:00.988Z,22.20
2023-01-23T10:29:35.996Z,24.98
2023-01-23T10:32:06.345Z,18.67
2023-01-23T10:34:48.673Z,20.13
2023-01-23T10:37:23.097Z,23.73
2023-01-23T10:39:57.136Z,21.70
2023-01-23T10:42:28.040Z,21.67
2023-01-23T10:44:58.007Z,20.52
2023-01-23T10:47:34.519Z,23.58
2023-01-23T10:50:06.269Z,20.10
2023-01-23T10:52:39.916Z,20.20
2023-01-23T10:55:30.904Z,21.20
2023-01-23T10:58:02.627Z,23.17
2023-01-23T11:03:25.855Z,22.27
2023-01-23T11:05:57.328Z,17.35
2023-01-23T11:08:28.856Z,21.60
2023-01-23T11:11:19.951Z,19.95
2023-01-23T11:13:50.949Z,16.88
2023-01-23T11:16:23.584Z,20.38
2023-01-23T11:18:55.758Z,21.60
2023-01-23T11:21:28.289Z,18.15
2023-01-23T11:24:11.053Z,20.13
2023-01-23T11:26:40.505Z,16.42
2023-01-23T11:29:23.021Z,19.95
2023-01-23T11:34:37.765Z,17.77
2023-01-23T11:37:21.704Z,20.02
2023-01-23T11:40:03.667Z,20.63
2023-01-23T11:42:42.307Z,15.15
2023-01-23T11:45:34.160Z,22.67
2023-01-23T11:48:30.537Z,21.02
2023-01-23T11:51:14.704Z,19.17
2023-01-23T11:53:56.026Z,19.27
2023-01-23T11:57:00.343Z,18.40
2023-01-23T11:59:59.532Z,16.52
2023-01-23T12:03:24.615Z,16.17
2023-01-23T12:06:20.472Z,17.33
2023-01-23T12:09:06.929Z,16.75
2023-01-23T12:11:52.007Z,19.23
2023-01-23T12:14:37.505Z,17.63
2023-01-23T12:17:25.874Z,19.30
2023-01-23T12:20:26.210Z,20.63
2023-01-23T12:23:25.431Z,18.92
2023-01-23T12:26:13.638Z,16.92
2023-01-23T12:29:16.254Z,20.95
2023-01-23T12:32:04.591Z,18.63
2023-01-23T12:34:50.758Z,20.45
2023-01-23T12:37:49.225Z,17.58
2023-01-23T12:40:26.373Z,19.33
2023-01-23T12:43:01.813Z,19.63
2023-01-23T12:45:32.424Z,19.60
2023-01-23T12:48:08.494Z,22.52
2023-01-23T12:50:44.319Z,20.95
2023-01-23T12:53:14.784Z,19.67
2023-01-23T12:55:54.684Z,19.50
2023-01-23T12:58:24.882Z,20.00
2023-01-23T13:01:07.949Z,20.48
2023-01-23T13:03:48.502Z,19.15
2023-01-23T13:06:35.166Z,23.15
2023-01-23T13:09:18.355Z,19.85
2023-01-23T13:12:03.303Z,21.17
2023-01-23T13:15:03.484Z,20.13
2023-01-23T13:17:42.399Z,15.90
2023-01-23T13:20:39.935Z,18.77
2023-01-23T13:23:22.064Z,18.80
2023-01-23T13:25:51.258Z,19.27
2023-01-23T13:28:44.576Z,18.17
2023-01-23T13:31:27.659Z,18.23
2023-01-23T13:34:06.598Z,17.58
2023-01-23T13:36:39.147Z,20.33
2023-01-23T13:39:24.308Z,16.15
2023-01-23T13:42:15.018Z,20.55
2023-01-23T13:45:17.072Z,19.35
2023-01-23T14:22:12.918Z,21.92
2023-01-23T14:24:48.209Z,22.10
2023-01-23T14:27:29.526Z,20.83
2023-01-23T14:30:00.589Z,21.48
2023-01-23T14:32:31.213Z,21.85
2023-01-23T14:35:00.073Z,23.10
2023-01-23T14:37:34.867Z,22.05
2023-01-23T14:40:11.792Z,20.63
2023-01-23T14:42:41.561Z,23.10
2023-01-23T14:45:14.174Z,23.75
2023-01-23T14:47:48.945Z,23.52
2023-01-23T14:50:28.543Z,24.95
2023-01-23T14:53:03.392Z,23.67
2023-01-23T14:55:32.965Z,20.73
2023-01-23T14:58:02.795Z,24.90
2023-01-23T15:00:32.405Z,22.80
2023-01-23T15:03:01.424Z,21.65
2023-01-23T15:05:30.674Z,20.73
2023-01-23T15:08:03.356Z,20.08
2023-01-23T15:10:37.312Z,19.75
2023-01-23T15:13:10.133Z,18.50
2023-01-23T15:15:39.411Z,22.35
2023-01-23T15:18:24.234Z,22.63
2023-01-23T15:20:57.469Z,22.15
2023-01-23T15:23:31.590Z,19.33
2023-01-23T15:26:25.041Z,18.27
2023-01-23T15:28:54.933Z,20.25
2023-01-23T15:31:29.623Z,24.50
2023-01-23T15:34:18.620Z,21.27
2023-01-23T15:36:48.407Z,23.80
2023-01-23T15:39:22.373Z,22.58
2023-01-23T15:41:52.810Z,23.77
2023-01-23T15:44:23.054Z,22.65
2023-01-23T15:46:51.776Z,27.85
2023-01-23T15:49:25.877Z,26.90
2023-01-23T15:51:57.585Z,36.47
2023-01-23T15:54:36.158Z,25.52
2023-01-23T15:57:08.331Z,26.25
2023-01-23T15:59:38.372Z,27.23
2023-01-23T16:02:18.087Z,28.02
2023-01-23T16:04:53.873Z,25.63
2023-01-23T16:07:28.849Z,25.83
2023-01-23T16:09:59.187Z,25.77
2023-01-23T16:12:30.607Z,28.13
2023-01-23T16:14:59.603Z,24.92
2023-01-23T16:17:28.939Z,28.58
2023-01-23T16:19:57.585Z,24.52
2023-01-23T16:22:29.587Z,27.67
2023-01-23T16:25:00.003Z,27.42
2023-01-23T16:27:28.714Z,25.90
2023-01-23T16:29:57.681Z,25.20
2023-01-23T16:32:27.775Z,26.00
2023-01-23T16:34:56.585Z,29.88
2023-01-23T16:37:25.819Z,36.28
2023-01-23T16:39:54.597Z,30.95
2023-01-23T16:42:26.680Z,40.38
2023-01-23T16:44:55.894Z,35.40
2023-01-23T16:47:24.442Z,34.13
2023-01-23T16:49:54.296Z,35.03
2023-01-23T16:52:27.136Z,40.55
2023-01-23T16:54:56.477Z,35.05
2023-01-23T16:57:26.749Z,35.63
2023-01-23T16:59:56.615Z,27.88
2023-01-23T17:02:30.639Z,33.38
2023-01-23T17:04:59.200Z,33.78
2023-01-23T17:07:27.833Z,37.65
2023-01-23T17:09:56.567Z,38.80
2023-01-23T17:12:31.440Z,32.08
2023-01-23T17:15:00.159Z,36.65
2023-01-23T17:17:32.990Z,38.15
2023-01-23T17:20:04.195Z,31.52
2023-01-23T17:22:38.658Z,27.50
2023-01-23T17:25:15.211Z,32.10
2023-01-23T17:28:00.681Z,31.80
2023-01-23T17:30:36.156Z,29.77
2023-01-23T17:33:05.237Z,31.52
2023-01-23T17:35:38.471Z,30.65
2023-01-23T17:38:17.127Z,33.05
2023-01-23T17:40:45.920Z,29.83
2023-01-23T17:43:19.320Z,27.67
2023-01-23T17:45:51.020Z,26.15
2023-01-23T17:48:26.882Z,32.42
2023-01-23T17:50:56.015Z,28.65
2023-01-23T17:53:25.080Z,28.02
2023-01-23T17:55:54.644Z,27.63
2023-01-23T17:58:26.032Z,26.95
2023-01-23T18:00:57.140Z,34.90
2023-01-23T18:03:26.237Z,34.53
2023-01-23T18:05:55.048Z,30.80
2023-01-23T18:08:23.860Z,32.15
2023-01-23T18:10:56.412Z,34.13
2023-01-23T18:13:38.451Z,30.25
2023-01-23T18:16:13.945Z,29.88
2023-01-23T18:18:43.864Z,33.92
2023-01-23T18:21:18.048Z,31.52
2023-01-23T18:23:47.975Z,30.63
2023-01-23T18:26:32.062Z,30.13
2023-01-23T18:29:15.715Z,27.85
2023-01-23T18:31:53.133Z,29.33
2023-01-23T18:34:33.487Z,33.53
2023-01-23T18:37:15.652Z,29.92
2023-01-23T18:42:25.098Z,95.03
2023-01-23T18:44:59.612Z,740.03
2023-01-23T18:47:28.717Z,669.40
2023-01-23T18:49:57.954Z,406.05
2023-01-23T18:52:36.924Z,226.45
2023-01-23T18:55:13.820Z,122.80
2023-01-23T18:58:00.180Z,77.80
2023-01-23T19:00:41.690Z,63.05
2023-01-23T19:03:15.652Z,62.10
2023-01-23T19:05:45.022Z,71.15
2023-01-23T19:08:28.238Z,43.17
2023-01-23T19:11:03.405Z,49.75
2023-01-23T19:13:42.897Z,38.55
2023-01-23T19:16:20.687Z,34.22
2023-01-23T19:18:52.905Z,37.70
2023-01-23T19:21:25.192Z,34.05
2023-01-23T19:23:59.326Z,38.22
2023-01-23T19:26:29.976Z,29.60
2023-01-23T19:28:59.962Z,35.00
2023-01-23T19:31:33.918Z,32.17
2023-01-23T19:34:05.123Z,28.98
2023-01-23T19:36:37.893Z,31.83
2023-01-23T19:39:08.035Z,40.15
2023-01-23T19:41:42.048Z,65.07
2023-01-23T19:44:13.647Z,60.90
2023-01-23T19:46:44.391Z,54.88
2023-01-23T19:49:13.549Z,35.58
2023-01-23T19:51:42.383Z,203.45
2023-01-23T19:54:13.433Z,70.05
2023-01-23T19:56:42.543Z,54.22
2023-01-23T19:59:11.616Z,37.97
2023-01-23T20:01:43.718Z,35.33
2023-01-23T20:04:16.780Z,35.97
2023-01-23T20:06:45.769Z,61.38
2023-01-23T20:09:15.657Z,126.15
2023-01-23T20:11:44.922Z,97.40
2023-01-23T20:14:16.441Z,122.65
2023-01-23T20:16:45.077Z,75.53
2023-01-23T20:19:16.982Z,98.50
2023-01-23T20:24:18.200Z,68.53
2023-01-23T20:26:47.513Z,136.10
2023-01-23T20:29:16.388Z,100.63
2023-01-23T20:31:45.056Z,73.10
2023-01-23T20:34:13.752Z,50.08
2023-01-23T20:36:43.935Z,36.90
2023-01-23T20:39:13.354Z,36.90
2023-01-23T20:41:42.199Z,35.08
2023-01-23T20:44:11.343Z,35.35
2023-01-23T20:46:39.985Z,33.15
2023-01-23T20:49:08.602Z,30.65
2023-01-23T20:51:37.324Z,30.30
2023-01-23T20:54:06.525Z,29.48
2023-01-23T20:56:35.802Z,32.50
2023-01-23T20:59:19.907Z,35.63
2023-01-23T21:02:06.283Z,37.50
2023-01-23T21:04:36.553Z,55.33
2023-01-23T21:07:05.649Z,64.38
2023-01-23T21:09:36.570Z,73.47
2023-01-23T21:12:05.620Z,52.90
2023-01-23T21:14:35.486Z,66.20
2023-01-23T21:17:05.566Z,65.97
2023-01-23T21:19:34.421Z,55.35
2023-01-23T21:22:03.222Z,42.63
2023-01-23T21:24:34.498Z,39.35
2023-01-23T21:27:05.112Z,35.20
2023-01-23T21:29:34.586Z,39.75
2023-01-23T21:32:03.839Z,38.85
2023-01-23T21:34:32.704Z,42.72
2023-01-23T21:37:01.296Z,37.25
2023-01-23T21:39:29.789Z,38.42
2023-01-23T21:41:58.369Z,34.38
2023-01-23T21:44:28.877Z,34.38
2023-01-23T21:46:57.397Z,33.72
2023-01-23T21:49:26.205Z,36.05
2023-01-23T21:51:54.658Z,33.30
2023-01-23T21:54:23.710Z,34.33
2023-01-23T21:56:52.389Z,34.97
2023-01-23T21:59:20.812Z,41.40
2023-01-23T22:01:50.439Z,36.63
2023-01-23T22:04:22.628Z,35.08
2023-01-23T22:06:55.423Z,33.30
2023-01-23T22:09:25.949Z,35.17
2023-01-23T22:11:55.072Z,34.60
2023-01-23T22:14:24.248Z,31.67
2023-01-23T22:16:54.861Z,37.15
2023-01-23T22:19:25.959Z,31.65
2023-01-23T22:21:55.587Z,45.67
2023-01-23T22:24:24.410Z,33.95
2023-01-23T22:26:53.187Z,35.45
2023-01-23T22:29:23.072Z,32.65
2023-01-23T22:31:52.550Z,38.05
2023-01-23T22:34:22.960Z,38.08
2023-01-23T22:36:52.766Z,36.13
2023-01-23T22:39:21.632Z,42.45
2023-01-23T22:41:51.408Z,60.20
2023-01-23T22:44:20.035Z,62.63
2023-01-23T22:46:51.583Z,41.47
2023-01-23T22:51:51.643Z,36.42
2023-01-23T22:56:48.640Z,36.55
2023-01-23T22:59:17.298Z,36.70
2023-01-23T23:01:46.103Z,37.58
2023-01-23T23:04:15.517Z,34.70
2023-01-23T23:06:43.920Z,32.30
2023-01-23T23:09:14.007Z,40.33
2023-01-23T23:11:42.606Z,42.10
2023-01-23T23:14:11.959Z,37.13
2023-01-23T23:16:41.122Z,43.65
2023-01-23T23:19:11.362Z,44.90
2023-01-23T23:21:40.125Z,41.47
2023-01-23T23:24:14.738Z,39.30
2023-01-23T23:26:46.328Z,39.13
2023-01-23T23:29:16.115Z,35.05
2023-01-23T23:31:45.011Z,33.70
2023-01-23T23:34:13.719Z,36.78
2023-01-23T23:36:42.286Z,36.30
2023-01-23T23:39:11.654Z,40.83
2023-01-23T23:41:40.326Z,40.05
2023-01-23T23:44:10.320Z,43.85
2023-01-23T23:46:38.892Z,47.05
2023-01-23T23:49:07.437Z,35.95
2023-01-23T23:51:36.848Z,40.25
2023-01-23T23:54:05.671Z,35.95
2023-01-23T23:56:34.261Z,38.97
2023-01-23T23:59:03.762Z,33.45
